createdAt,value
2017-07-28T00:01:27.299Z,22.60
2017-07-28T00:03:53.329Z,17.13
2017-07-28T00:06:19.342Z,27.40
2017-07-28T00:08:45.377Z,15.70
2017-07-28T00:11:11.400Z,20.37
2017-07-28T00:13:37.438Z,28.40
2017-07-28T00:16:04.190Z,22.93
2017-07-28T00:18:30.255Z,26.53
2017-07-28T00:20:57.013Z,16.50
2017-07-28T00:23:23.033Z,20.83
2017-07-28T00:25:49.079Z,18.60
2017-07-28T00:28:15.225Z,34.00
2017-07-28T00:30:41.269Z,23.80
2017-07-28T00:33:07.302Z,13.90
2017-07-28T00:35:33.341Z,17.40
2017-07-28T00:37:59.369Z,13.83
2017-07-28T00:40:25.389Z,15.60
2017-07-28T00:42:51.423Z,13.00
2017-07-28T00:45:17.467Z,19.63
2017-07-28T00:47:43.497Z,16.57
2017-07-28T00:50:09.502Z,15.57
2017-07-28T00:52:35.546Z,12.70
2017-07-28T00:55:01.574Z,12.47
2017-07-28T00:57:27.619Z,12.13
2017-07-28T00:59:54.388Z,7.77
2017-07-28T01:02:20.434Z,11.57
2017-07-28T01:04:46.449Z,8.30
2017-07-28T01:07:12.467Z,9.80
2017-07-28T01:09:38.490Z,10.30
2017-07-28T01:12:05.246Z,6.60
2017-07-28T01:14:31.278Z,8.43
2017-07-28T01:16:57.314Z,9.83
2017-07-28T01:19:23.338Z,13.23
2017-07-28T01:21:50.097Z,5.80
2017-07-28T01:24:16.109Z,6.77
2017-07-28T01:26:42.139Z,9.80
2017-07-28T01:29:08.174Z,5.70
2017-07-28T01:31:34.194Z,8.27
2017-07-28T01:34:00.987Z,10.20
2017-07-28T01:36:27.021Z,10.43
2017-07-28T01:39:08.030Z,9.53
2017-07-28T01:41:34.058Z,5.90
2017-07-28T01:44:00.091Z,6.83
2017-07-28T01:46:26.858Z,9.83
2017-07-28T01:48:52.925Z,8.73
2017-07-28T01:51:18.951Z,8.27
2017-07-28T01:53:45.714Z,9.90
2017-07-28T01:56:11.733Z,10.93
2017-07-28T01:58:37.763Z,8.27
2017-07-28T02:01:03.786Z,10.33
2017-07-28T02:03:29.801Z,9.13
2017-07-28T02:05:56.572Z,11.13
2017-07-28T02:08:22.589Z,10.20
2017-07-28T02:10:48.629Z,10.40
2017-07-28T02:13:14.641Z,14.83
2017-07-28T02:15:40.662Z,12.20
2017-07-28T02:18:06.729Z,12.93
2017-07-28T02:20:32.742Z,21.30
2017-07-28T02:22:58.779Z,21.53
2017-07-28T02:25:25.547Z,15.10
2017-07-28T02:27:51.586Z,9.33
2017-07-28T02:30:17.623Z,17.90
2017-07-28T02:32:44.386Z,14.53
2017-07-28T02:35:10.415Z,16.33
2017-07-28T02:37:36.450Z,16.43
2017-07-28T02:40:02.477Z,21.83
2017-07-28T02:42:29.246Z,18.83
2017-07-28T02:44:55.287Z,17.93
2017-07-28T02:47:21.301Z,20.10
2017-07-28T02:49:48.085Z,27.60
2017-07-28T02:52:14.104Z,23.57
2017-07-28T02:54:40.126Z,21.80
2017-07-28T02:57:06.151Z,26.87
2017-07-28T02:59:32.192Z,22.77
2017-07-28T03:01:58.958Z,28.83
2017-07-28T03:04:25.001Z,26.13
2017-07-28T03:06:51.010Z,25.03
2017-07-28T03:09:17.023Z,27.03
2017-07-28T03:11:43.042Z,27.80
2017-07-28T03:14:09.055Z,51.00
2017-07-28T03:16:35.085Z,26.90
2017-07-28T03:19:01.098Z,34.20
2017-07-28T03:21:27.122Z,27.50
2017-07-28T03:23:53.194Z,24.27
2017-07-28T03:26:19.952Z,25.97
2017-07-28T03:28:45.961Z,30.70
2017-07-28T03:31:12.004Z,36.10
2017-07-28T03:33:38.016Z,36.50
2017-07-28T03:36:04.030Z,48.63
2017-07-28T03:38:30.058Z,28.07
2017-07-28T03:40:56.826Z,31.03
2017-07-28T03:43:22.863Z,29.43
2017-07-28T03:45:48.888Z,29.33
2017-07-28T03:48:14.910Z,35.10
2017-07-28T03:50:40.933Z,33.73
2017-07-28T03:53:06.949Z,33.70
2017-07-28T03:55:32.958Z,38.80
2017-07-28T03:57:58.983Z,41.27
2017-07-28T04:00:25.009Z,27.70
2017-07-28T04:02:51.053Z,41.87
2017-07-28T04:05:17.808Z,35.07
2017-07-28T04:07:43.830Z,34.37
2017-07-28T04:10:09.859Z,38.43
2017-07-28T04:12:35.896Z,45.57
2017-07-28T04:15:02.661Z,35.03
2017-07-28T04:17:28.669Z,33.13
2017-07-28T04:19:54.700Z,27.53
2017-07-28T04:22:20.714Z,30.63
2017-07-28T04:24:46.738Z,26.23
2017-07-28T04:27:12.763Z,24.00
2017-07-28T04:29:38.790Z,30.67
2017-07-28T04:32:04.810Z,21.80
2017-07-28T04:34:30.827Z,22.57
2017-07-28T04:36:56.841Z,25.90
2017-07-28T04:39:22.862Z,22.20
2017-07-28T04:41:48.886Z,30.70
2017-07-28T04:44:14.893Z,19.30
2017-07-28T04:46:40.922Z,18.57
2017-07-28T04:49:06.929Z,20.17
2017-07-28T04:51:32.942Z,27.77
2017-07-28T04:53:58.942Z,23.13
2017-07-28T04:56:24.961Z,18.03
2017-07-28T04:58:51.743Z,26.30
2017-07-28T05:01:17.779Z,23.60
2017-07-28T05:03:44.332Z,22.67
2017-07-28T05:06:10.557Z,18.60
2017-07-28T05:08:36.587Z,20.17
2017-07-28T05:11:02.646Z,11.13
2017-07-28T05:13:28.661Z,13.07
2017-07-28T05:15:54.685Z,10.80
2017-07-28T05:18:20.746Z,21.70
2017-07-28T05:20:46.798Z,29.53
2017-07-28T05:23:13.574Z,18.83
2017-07-28T05:25:39.611Z,31.83
2017-07-28T05:28:05.661Z,17.63
2017-07-28T05:30:31.689Z,15.43
2017-07-28T05:32:57.741Z,25.03
2017-07-28T05:35:24.518Z,22.17
2017-07-28T05:37:50.590Z,17.23
2017-07-28T05:40:16.622Z,25.77
2017-07-28T05:42:42.696Z,22.53
2017-07-28T05:45:09.480Z,17.40
2017-07-28T05:47:35.502Z,17.73
2017-07-28T05:50:01.546Z,18.90
2017-07-28T05:52:27.611Z,17.77
2017-07-28T05:54:53.660Z,13.47
2017-07-28T05:57:19.682Z,16.93
2017-07-28T05:59:45.726Z,14.40
2017-07-28T06:02:11.773Z,20.53
2017-07-28T06:04:37.806Z,25.80
2017-07-28T06:07:04.591Z,26.17
2017-07-28T06:09:30.617Z,19.70
2017-07-28T06:11:56.646Z,24.67
2017-07-28T06:14:23.410Z,17.20
2017-07-28T06:16:49.496Z,18.57
2017-07-28T06:19:15.544Z,20.03
2017-07-28T06:21:41.581Z,21.50
2017-07-28T06:24:07.614Z,18.83
2017-07-28T06:26:33.677Z,21.33
2017-07-28T06:28:59.792Z,20.07
2017-07-28T06:31:25.939Z,33.60
2017-07-28T06:33:59.679Z,18.13
2017-07-28T06:36:25.788Z,37.20
2017-07-28T06:38:51.851Z,25.53
2017-07-28T06:41:17.911Z,16.47
2017-07-28T06:43:43.998Z,23.70
2017-07-28T06:46:10.091Z,20.33
2017-07-28T06:48:36.153Z,24.73
2017-07-28T06:51:02.218Z,18.67
2017-07-28T06:53:28.279Z,22.87
2017-07-28T06:55:54.327Z,62.93
2017-07-28T06:58:20.391Z,33.73
2017-07-28T07:00:47.199Z,23.90
2017-07-28T07:03:13.261Z,30.13
2017-07-28T07:05:39.328Z,21.50
2017-07-28T07:08:05.390Z,32.27
2017-07-28T07:10:31.459Z,27.47
2017-07-28T07:12:58.268Z,38.67
2017-07-28T07:15:24.340Z,19.13
2017-07-28T07:17:50.387Z,29.33
2017-07-28T07:20:16.425Z,20.93
2017-07-28T07:22:42.479Z,20.70
2017-07-28T07:25:08.602Z,20.03
2017-07-28T07:27:35.803Z,29.03
2017-07-28T07:30:02.733Z,19.77
2017-07-28T07:32:28.782Z,22.47
2017-07-28T07:34:54.827Z,28.10
2017-07-28T07:37:20.856Z,30.10
2017-07-28T07:39:47.617Z,31.40
2017-07-28T07:42:13.638Z,27.63
2017-07-28T07:44:39.686Z,31.90
2017-07-28T07:47:05.711Z,32.27
2017-07-28T07:49:32.474Z,26.07
2017-07-28T07:51:58.503Z,26.07
2017-07-28T07:54:24.530Z,26.47
2017-07-28T07:56:50.549Z,23.73
2017-07-28T07:59:17.309Z,14.93
2017-07-28T08:01:43.371Z,38.67
2017-07-28T08:04:09.389Z,25.47
2017-07-28T08:06:35.415Z,31.70
2017-07-28T08:09:02.182Z,26.20
2017-07-28T08:11:28.205Z,31.10
2017-07-28T08:13:54.234Z,22.20
2017-07-28T08:16:20.250Z,29.47
2017-07-28T08:18:46.299Z,27.20
2017-07-28T08:21:12.342Z,28.87
2017-07-28T08:23:38.378Z,24.80
2017-07-28T08:26:05.153Z,34.53
2017-07-28T08:28:46.154Z,26.03
2017-07-28T08:31:12.939Z,30.47
2017-07-28T08:33:38.977Z,37.40
2017-07-28T08:36:05.013Z,30.67
2017-07-28T08:38:31.789Z,38.37
2017-07-28T08:40:57.819Z,27.30
2017-07-28T08:43:23.874Z,17.33
2017-07-28T08:45:49.910Z,23.70
2017-07-28T08:48:15.983Z,18.57
2017-07-28T08:50:42.042Z,16.77
2017-07-28T08:53:08.094Z,14.53
2017-07-28T08:55:34.889Z,24.90
2017-07-28T08:58:01.942Z,19.10
2017-07-28T09:00:29.385Z,31.30
2017-07-28T09:02:55.784Z,23.20
2017-07-28T09:05:21.847Z,25.20
2017-07-28T09:07:47.899Z,21.33
2017-07-28T09:10:14.974Z,27.60
2017-07-28T09:12:41.289Z,39.37
2017-07-28T09:15:07.394Z,19.80
2017-07-28T09:17:33.662Z,20.63
2017-07-28T09:20:00.167Z,25.77
2017-07-28T09:22:26.241Z,24.57
2017-07-28T09:24:52.284Z,22.67
2017-07-28T09:27:18.330Z,27.63
2017-07-28T09:29:45.121Z,27.73
2017-07-28T09:32:11.206Z,25.37
2017-07-28T09:34:37.253Z,20.13
2017-07-28T09:37:03.358Z,19.27
2017-07-28T09:39:29.393Z,26.93
2017-07-28T09:41:56.202Z,19.80
2017-07-28T09:44:22.341Z,17.93
2017-07-28T09:46:48.427Z,16.40
2017-07-28T09:49:14.466Z,26.60
2017-07-28T09:51:40.515Z,18.97
2017-07-28T09:54:06.571Z,13.80
2017-07-28T09:56:34.365Z,23.53
2017-07-28T09:59:02.180Z,19.70
2017-07-28T10:01:28.954Z,13.67
2017-07-28T10:03:56.773Z,20.10
2017-07-28T10:06:24.578Z,13.87
2017-07-28T10:08:52.400Z,23.40
2017-07-28T10:11:20.214Z,20.03
2017-07-28T10:13:46.977Z,19.67
2017-07-28T10:16:13.159Z,16.77
2017-07-28T10:18:39.193Z,14.17
2017-07-28T10:21:05.233Z,20.50
2017-07-28T10:23:31.271Z,14.47
2017-07-28T10:25:58.059Z,10.63
2017-07-28T10:28:24.098Z,14.27
2017-07-28T10:30:50.870Z,15.40
2017-07-28T10:33:16.924Z,11.73
2017-07-28T10:35:42.970Z,13.83
2017-07-28T10:38:09.037Z,10.70
2017-07-28T10:40:35.110Z,13.30
2017-07-28T10:43:01.167Z,8.37
2017-07-28T10:45:27.294Z,12.03
2017-07-28T10:47:54.332Z,20.67
2017-07-28T10:50:20.418Z,10.33
2017-07-28T10:52:47.284Z,11.63
2017-07-28T10:55:13.334Z,20.07
2017-07-28T10:57:39.391Z,10.67
2017-07-28T11:00:05.434Z,12.63
2017-07-28T11:02:31.566Z,15.07
2017-07-28T11:04:57.617Z,9.43
2017-07-28T11:07:23.647Z,19.43
2017-07-28T11:09:49.685Z,16.10
2017-07-28T11:12:15.713Z,13.73
2017-07-28T11:14:41.745Z,18.63
2017-07-28T11:17:08.535Z,10.53
2017-07-28T11:19:34.580Z,13.47
2017-07-28T11:22:00.617Z,14.83
2017-07-28T11:24:27.053Z,14.70
2017-07-28T11:26:54.459Z,12.60
2017-07-28T11:29:20.619Z,13.57
2017-07-28T11:31:46.680Z,23.17
2017-07-28T11:34:12.779Z,9.33
2017-07-28T11:36:39.616Z,3.23
2017-07-28T11:39:05.713Z,3.77
2017-07-28T11:41:31.861Z,3.40
2017-07-28T11:43:57.901Z,6.10
2017-07-28T11:46:23.939Z,2.87
2017-07-28T11:48:50.702Z,2.60
2017-07-28T11:51:16.737Z,5.13
2017-07-28T11:53:42.781Z,1.80
2017-07-28T11:56:09.566Z,1.87
2017-07-28T11:58:35.584Z,2.50
2017-07-28T12:01:01.625Z,2.57
2017-07-28T12:03:28.388Z,2.43
2017-07-28T12:05:54.460Z,7.47
2017-07-28T12:08:21.242Z,3.00
2017-07-28T12:10:47.281Z,6.50
2017-07-28T12:13:14.074Z,8.27
2017-07-28T12:15:40.107Z,4.40
2017-07-28T12:18:06.247Z,6.50
2017-07-28T12:20:32.300Z,10.67
2017-07-28T12:23:00.117Z,5.10
2017-07-28T12:25:26.866Z,7.23
2017-07-28T12:27:52.882Z,7.83
2017-07-28T12:30:18.913Z,6.10
2017-07-28T12:32:44.945Z,7.70
2017-07-28T12:35:10.964Z,12.63
2017-07-28T12:37:37.734Z,16.27
2017-07-28T12:40:03.770Z,10.60
2017-07-28T12:42:29.819Z,11.53
2017-07-28T12:44:55.837Z,11.27
2017-07-28T12:47:21.854Z,13.73
2017-07-28T12:49:47.858Z,18.10
2017-07-28T12:52:13.962Z,13.57
2017-07-28T12:54:40.042Z,15.10
2017-07-28T12:57:06.883Z,14.07
2017-07-28T12:59:33.711Z,11.10
2017-07-28T13:02:00.464Z,16.10
2017-07-28T13:04:26.478Z,13.20
2017-07-28T13:06:52.494Z,20.60
2017-07-28T13:09:18.518Z,16.77
2017-07-28T13:11:44.541Z,21.73
2017-07-28T13:14:10.559Z,30.80
2017-07-28T13:16:36.591Z,34.37
2017-07-28T13:19:02.671Z,26.40
2017-07-28T13:21:28.690Z,25.83
2017-07-28T13:23:55.450Z,31.70
2017-07-28T13:26:21.497Z,19.30
2017-07-28T13:28:47.534Z,10.30
2017-07-28T13:31:14.306Z,11.83
2017-07-28T13:33:40.329Z,4.50
2017-07-28T13:36:06.373Z,8.67
2017-07-28T13:38:34.174Z,8.00
2017-07-28T13:41:01.979Z,7.00
2017-07-28T13:43:29.777Z,7.70
2017-07-28T13:46:02.070Z,8.33
2017-07-28T13:48:28.094Z,9.47
2017-07-28T13:50:54.860Z,7.47
2017-07-28T13:53:20.887Z,8.13
2017-07-28T13:55:46.915Z,7.93
2017-07-28T13:58:12.941Z,9.03
2017-07-28T14:00:39.713Z,10.77
2017-07-28T14:03:05.750Z,14.23
2017-07-28T14:05:31.773Z,7.50
2017-07-28T14:07:57.801Z,7.47
2017-07-28T14:10:23.809Z,7.10
2017-07-28T14:12:49.836Z,5.07
2017-07-28T14:15:15.845Z,5.30
2017-07-28T14:17:43.644Z,5.53
2017-07-28T14:20:11.442Z,6.27
2017-07-28T14:22:38.592Z,4.47
2017-07-28T14:25:04.634Z,8.37
2017-07-28T14:27:30.667Z,8.33
2017-07-28T14:29:56.705Z,4.10
2017-07-28T14:32:22.724Z,6.57
2017-07-28T14:34:48.745Z,5.57
2017-07-28T14:37:14.761Z,7.63
2017-07-28T14:39:40.795Z,2.70
2017-07-28T14:42:06.813Z,9.00
2017-07-28T14:44:34.618Z,10.10
2017-07-28T14:47:02.409Z,8.03
2017-07-28T14:49:30.209Z,10.37
2017-07-28T14:51:57.997Z,11.20
2017-07-28T14:54:25.797Z,8.10
2017-07-28T14:56:53.586Z,9.20
2017-07-28T14:59:21.394Z,5.67
2017-07-28T15:01:49.193Z,7.83
2017-07-28T15:04:18.149Z,11.73
2017-07-28T15:06:45.955Z,12.30
2017-07-28T15:09:13.745Z,15.70
2017-07-28T15:11:41.558Z,13.60
2017-07-28T15:14:07.958Z,9.13
2017-07-28T15:16:34.362Z,17.57
2017-07-28T15:19:00.398Z,14.60
2017-07-28T15:21:27.334Z,11.90
2017-07-28T15:23:53.424Z,15.10
2017-07-28T15:26:19.474Z,16.60
2017-07-28T15:28:45.482Z,16.90
2017-07-28T15:31:11.502Z,10.83
2017-07-28T15:33:37.527Z,12.13
2017-07-28T15:36:03.537Z,11.20
2017-07-28T15:38:29.567Z,13.67
2017-07-28T15:40:55.592Z,7.80
2017-07-28T15:43:22.358Z,8.83
2017-07-28T15:45:48.373Z,15.43
2017-07-28T15:48:14.393Z,12.90
2017-07-28T15:50:40.418Z,12.50
2017-07-28T15:53:06.446Z,9.97
2017-07-28T15:55:32.453Z,6.97
2017-07-28T15:57:58.478Z,10.83
2017-07-28T16:00:24.493Z,8.73
2017-07-28T16:02:50.527Z,10.80
2017-07-28T16:05:16.534Z,4.90
2017-07-28T16:07:42.541Z,6.10
2017-07-28T16:10:09.018Z,10.33
2017-07-28T16:12:35.774Z,11.40
2017-07-28T16:15:01.807Z,6.77
2017-07-28T16:17:27.841Z,9.00
2017-07-28T16:19:53.862Z,7.53
2017-07-28T16:22:20.628Z,3.80
2017-07-28T16:24:48.444Z,4.30
2017-07-28T16:27:15.215Z,5.57
2017-07-28T16:29:41.233Z,6.03
2017-07-28T16:32:07.241Z,8.40
2017-07-28T16:34:33.261Z,6.80
2017-07-28T16:36:59.273Z,7.63
2017-07-28T16:39:25.279Z,5.73
2017-07-28T16:41:53.070Z,9.10
2017-07-28T16:44:20.882Z,7.00
2017-07-28T16:46:48.687Z,6.27
2017-07-28T16:49:16.487Z,12.80
2017-07-28T16:51:44.394Z,13.77
2017-07-28T16:54:10.414Z,11.60
2017-07-28T16:56:36.451Z,11.07
2017-07-28T16:59:02.469Z,9.70
2017-07-28T17:01:28.494Z,13.90
2017-07-28T17:03:55.246Z,9.07
2017-07-28T17:06:21.300Z,7.17
2017-07-28T17:08:47.313Z,10.50
2017-07-28T17:11:13.352Z,9.77
2017-07-28T17:13:40.110Z,11.50
2017-07-28T17:16:06.136Z,14.23
2017-07-28T17:18:32.169Z,6.53
2017-07-28T17:20:58.207Z,7.13
2017-07-28T17:23:24.218Z,7.10
2017-07-28T17:25:50.246Z,6.93
2017-07-28T17:28:16.295Z,6.70
2017-07-28T17:30:42.702Z,7.43
2017-07-28T17:33:08.771Z,10.50
2017-07-28T17:35:34.801Z,10.33
2017-07-28T17:38:00.869Z,10.10
2017-07-28T17:40:27.645Z,4.43
2017-07-28T17:42:53.695Z,8.63
2017-07-28T17:45:19.728Z,13.13
2017-07-28T17:47:45.794Z,9.10
2017-07-28T17:50:11.833Z,7.90
2017-07-28T17:52:38.598Z,10.30
2017-07-28T17:55:05.237Z,14.73
2017-07-28T17:57:31.276Z,9.40
2017-07-28T17:59:57.406Z,15.80
2017-07-28T18:02:24.161Z,16.43
2017-07-28T18:04:50.203Z,14.37
2017-07-28T18:07:16.237Z,5.03
2017-07-28T18:09:42.989Z,10.00
2017-07-28T18:12:08.997Z,9.53
2017-07-28T18:14:35.017Z,13.37
2017-07-28T18:17:01.060Z,11.30
2017-07-28T18:19:27.089Z,8.90
2017-07-28T18:21:53.120Z,5.20
2017-07-28T18:24:19.157Z,8.90
2017-07-28T18:26:45.185Z,6.97
2017-07-28T18:29:11.219Z,8.63
2017-07-28T18:31:37.225Z,7.97
2017-07-28T18:34:03.266Z,8.73
2017-07-28T18:36:29.354Z,7.23
2017-07-28T18:38:56.131Z,9.70
2017-07-28T18:41:22.157Z,6.63
2017-07-28T18:43:48.185Z,6.77
2017-07-28T18:46:14.234Z,9.13
2017-07-28T18:48:40.257Z,11.67
2017-07-28T18:51:06.334Z,11.63
2017-07-28T18:53:33.093Z,11.37
2017-07-28T18:55:59.258Z,7.10
2017-07-28T18:58:26.041Z,11.23
2017-07-28T19:00:52.086Z,9.47
2017-07-28T19:03:18.118Z,9.77
2017-07-28T19:05:44.146Z,10.03
2017-07-28T19:08:10.170Z,15.60
2017-07-28T19:10:36.219Z,9.77
2017-07-28T19:13:02.271Z,7.67
2017-07-28T19:15:28.315Z,12.30
2017-07-28T19:17:54.350Z,11.90
2017-07-28T19:20:20.361Z,9.07
2017-07-28T19:22:46.396Z,6.47
2017-07-28T19:25:12.422Z,11.40
2017-07-28T19:27:38.452Z,8.20
2017-07-28T19:30:04.474Z,15.10
2017-07-28T19:32:30.527Z,16.07
2017-07-28T19:34:56.621Z,11.80
2017-07-28T19:37:22.659Z,11.93
2017-07-28T19:39:48.683Z,14.37
2017-07-28T19:42:14.702Z,12.93
2017-07-28T19:44:40.722Z,14.90
2017-07-28T19:47:06.745Z,11.97
2017-07-28T19:49:32.783Z,11.67
2017-07-28T19:51:58.827Z,17.13
2017-07-28T19:54:24.867Z,13.67
2017-07-28T19:56:50.905Z,10.07
2017-07-28T19:59:17.697Z,9.43
2017-07-28T20:01:43.760Z,10.97
2017-07-28T20:04:09.807Z,8.27
2017-07-28T20:06:35.839Z,15.53
2017-07-28T20:09:02.622Z,9.90
2017-07-28T20:11:28.707Z,8.07
2017-07-28T20:13:54.742Z,11.30
2017-07-28T20:16:20.781Z,11.20
2017-07-28T20:18:46.869Z,7.23
2017-07-28T20:21:12.914Z,13.80
2017-07-28T20:23:38.958Z,9.53
2017-07-28T20:26:05.029Z,8.70
2017-07-28T20:28:31.198Z,9.97
2017-07-28T20:30:57.287Z,7.53
2017-07-28T20:33:23.309Z,12.80
2017-07-28T20:35:49.390Z,13.40
2017-07-28T20:38:16.178Z,10.10
2017-07-28T20:40:42.244Z,12.33
2017-07-28T20:43:08.273Z,12.40
2017-07-28T20:45:34.637Z,8.13
2017-07-28T20:48:00.657Z,10.07
2017-07-28T20:50:27.410Z,14.00
2017-07-28T20:52:53.433Z,7.70
2017-07-28T20:55:19.466Z,15.97
2017-07-28T20:57:45.489Z,13.50
2017-07-28T21:00:11.519Z,13.70
2017-07-28T21:02:38.174Z,8.93
2017-07-28T21:05:05.518Z,7.77
2017-07-28T21:07:32.451Z,16.90
2017-07-28T21:09:58.618Z,12.70
2017-07-28T21:12:25.379Z,16.20
2017-07-28T21:14:51.402Z,17.33
2017-07-28T21:17:17.417Z,10.63
2017-07-28T21:19:43.457Z,13.40
2017-07-28T21:22:10.244Z,12.60
2017-07-28T21:24:36.277Z,12.43
2017-07-28T21:27:02.305Z,14.23
2017-07-28T21:29:29.119Z,8.67
2017-07-28T21:31:55.923Z,15.40
2017-07-28T21:34:21.958Z,17.00
2017-07-28T21:36:47.989Z,12.97
2017-07-28T21:39:14.035Z,13.60
2017-07-28T21:41:40.075Z,19.47
2017-07-28T21:44:06.101Z,15.80
2017-07-28T21:46:32.950Z,14.80
2017-07-28T21:48:58.973Z,15.70
2017-07-28T21:51:25.013Z,22.00
2017-07-28T21:53:51.064Z,11.50
2017-07-28T21:56:17.086Z,18.77
2017-07-28T21:58:43.112Z,18.70
2017-07-28T22:01:09.163Z,12.37
2017-07-28T22:03:35.973Z,19.40
2017-07-28T22:06:02.042Z,14.97
2017-07-28T22:08:28.094Z,14.70
2017-07-28T22:10:54.153Z,19.67
2017-07-28T22:13:20.217Z,17.70
2017-07-28T22:15:46.251Z,17.17
2017-07-28T22:18:12.303Z,20.27
2017-07-28T22:20:38.371Z,16.20
2017-07-28T22:23:05.137Z,15.60
2017-07-28T22:25:31.163Z,21.30
2017-07-28T22:27:57.204Z,24.67
2017-07-28T22:30:23.242Z,15.43
2017-07-28T22:32:49.293Z,12.03
2017-07-28T22:35:15.330Z,15.27
2017-07-28T22:37:41.361Z,18.97
2017-07-28T22:40:07.405Z,24.03
2017-07-28T22:42:33.451Z,15.17
2017-07-28T22:44:59.497Z,18.77
2017-07-28T22:47:25.523Z,15.23
2017-07-28T22:49:51.569Z,14.67
2017-07-28T22:52:17.645Z,16.27
2017-07-28T22:54:43.673Z,23.60
2017-07-28T22:57:09.718Z,23.07
2017-07-28T22:59:36.528Z,16.90
2017-07-28T23:02:02.567Z,16.80
2017-07-28T23:04:28.607Z,17.17
2017-07-28T23:06:54.653Z,15.70
2017-07-28T23:09:20.706Z,15.47
2017-07-28T23:11:46.752Z,26.03
2017-07-28T23:14:12.765Z,16.40
2017-07-28T23:16:38.929Z,22.67
2017-07-28T23:19:19.946Z,16.03
2017-07-28T23:21:45.986Z,34.13
2017-07-28T23:24:12.022Z,20.70
2017-07-28T23:26:38.079Z,17.10
2017-07-28T23:29:04.134Z,19.50
2017-07-28T23:31:30.168Z,16.90
2017-07-28T23:33:56.209Z,22.20
2017-07-28T23:36:23.002Z,12.73
2017-07-28T23:38:49.815Z,20.23
2017-07-28T23:41:15.867Z,22.20
2017-07-28T23:43:41.920Z,21.43
2017-07-28T23:46:07.955Z,22.80
2017-07-28T23:48:33.984Z,32.33
2017-07-28T23:51:00.031Z,20.17
2017-07-28T23:53:26.817Z,18.33
2017-07-28T23:55:52.857Z,17.07
2017-07-28T23:58:18.903Z,22.60
